Time;durP1;ratioP1;P1;durP2;ratioP2;P2;SDS_P1;SDS_P2;PMS_P1;PMS_P2;Temp;Humidity;BMP_temperature;BMP_pressure;BME280_temperature;BME280_humidity;BME280_pressure;Samples;Min_cycle;Max_cycle;Signal;HPM_P1;HPM_P2
2022/01/28 00:01:05;;;;;;;1.75;0.80;;;22.10;32.70;;;;;;5061557;28;20472;-52
2022/01/28 00:03:34;;;;;;;1.67;0.50;;;22.10;32.70;;;;;;5076566;28;20032;-52
2022/01/28 00:06:00;;;;;;;2.72;0.90;;;22.10;32.70;;;;;;5065706;28;20028;-51
2022/01/28 00:08:26;;;;;;;2.58;0.70;;;22.10;32.70;;;;;;5067771;28;20078;-55
2022/01/28 00:10:53;;;;;;;2.25;0.80;;;22.10;32.60;;;;;;5055952;28;20024;-49
2022/01/28 00:13:22;;;;;;;1.65;0.80;;;22.10;32.60;;;;;;5056404;28;20029;-54
2022/01/28 00:37:59;;;;;;;2.40;0.50;;;22.00;32.50;;;;;;5038491;28;20463;-49
2022/01/28 00:40:12;;;;;;;1.65;0.60;;;22.00;32.50;;;;;;5054407;28;20459;-53
2022/01/28 00:42:38;;;;;;;2.05;0.70;;;22.00;32.50;;;;;;5065336;28;20025;-52
2022/01/28 00:45:04;;;;;;;1.63;0.68;;;22.00;32.40;;;;;;5064421;28;20036;-48
2022/01/28 00:47:30;;;;;;;1.83;0.90;;;21.90;32.40;;;;;;5058869;28;20452;-51
2022/01/28 00:49:56;;;;;;;2.72;0.80;;;22.00;32.40;;;;;;5064081;28;20030;-52
2022/01/28 00:52:22;;;;;;;1.75;0.50;;;21.90;32.30;;;;;;5059176;28;20052;-53
2022/01/28 00:54:48;;;;;;;2.17;0.70;;;22.00;32.40;;;;;;5055205;28;20032;-52
2022/01/28 00:57:14;;;;;;;1.55;0.60;;;21.90;32.30;;;;;;5055806;28;20112;-53
2022/01/28 00:59:40;;;;;;;2.53;0.60;;;21.90;32.30;;;;;;5055021;28;20474;-54
2022/01/28 01:02:06;;;;;;;2.63;0.80;;;21.90;32.30;;;;;;5061274;28;20056;-52
2022/01/28 01:04:32;;;;;;;1.58;0.50;;;21.90;32.30;;;;;;5057800;28;20331;-53
2022/01/28 01:06:58;;;;;;;1.40;0.57;;;21.90;32.20;;;;;;5072136;28;20048;-55
2022/01/28 01:09:23;;;;;;;2.17;0.60;;;21.90;32.30;;;;;;5074284;28;20067;-47
2022/01/28 01:11:49;;;;;;;1.80;0.70;;;21.90;32.20;;;;;;5069184;28;20032;-55
2022/01/28 01:14:15;;;;;;;2.38;0.80;;;21.90;32.20;;;;;;5055499;28;20094;-56
2022/01/28 01:17:06;;;;;;;2.22;0.73;;;21.90;32.20;;;;;;5055808;28;20029;-54
2022/01/28 01:19:38;;;;;;;1.70;0.65;;;21.90;32.20;;;;;;5075301;28;20431;-54
2022/01/28 01:22:05;;;;;;;2.15;0.73;;;21.80;32.20;;;;;;5069902;28;20042;-48
2022/01/28 01:24:47;;;;;;;2.35;0.65;;;21.90;32.20;;;;;;5071422;28;20079;-54
2022/01/28 01:27:12;;;;;;;2.80;0.75;;;21.90;32.20;;;;;;5055101;28;20064;-54
2022/01/28 01:29:42;;;;;;;2.53;0.70;;;21.80;32.10;;;;;;5054403;28;20417;-57
2022/01/28 01:32:13;;;;;;;1.90;0.70;;;21.80;32.10;;;;;;5054741;28;20021;-47
2022/01/28 01:34:39;;;;;;;2.08;0.80;;;21.80;32.10;;;;;;5055335;28;20037;-53
2022/01/28 01:37:04;;;;;;;4.65;1.20;;;21.80;32.10;;;;;;5059553;28;20035;-52
2022/01/28 01:39:34;;;;;;;1.70;0.70;;;21.80;32.10;;;;;;5066283;28;20109;-51
2022/01/28 01:42:10;;;;;;;1.75;0.80;;;21.80;32.10;;;;;;5060119;28;20036;-50
2022/01/28 01:52:45;;;;;;;3.08;0.70;;;21.80;32.10;;;;;;5054462;28;20017;-51
2022/01/28 01:55:11;;;;;;;2.65;0.75;;;21.70;32.10;;;;;;5054464;28;20044;-47
2022/01/28 01:57:38;;;;;;;2.65;0.98;;;21.80;32.10;;;;;;5060443;28;20032;-49
2022/01/28 02:00:06;;;;;;;1.80;0.60;;;21.80;32.10;;;;;;5060544;28;20052;-54
2022/01/28 02:02:32;;;;;;;2.05;0.60;;;21.80;32.10;;;;;;5054846;28;20424;-54
2022/01/28 02:04:58;;;;;;;1.90;0.77;;;21.70;32.10;;;;;;5061179;28;20017;-53
2022/01/28 02:07:26;;;;;;;1.88;0.77;;;21.70;32.10;;;;;;5061911;28;20020;-49
2022/01/28 02:09:52;;;;;;;1.30;0.50;;;21.70;32.10;;;;;;5062932;28;20033;-51
2022/01/28 02:12:18;;;;;;;2.40;0.65;;;21.80;32.10;;;;;;5061294;28;20020;-54
2022/01/28 02:14:43;;;;;;;2.60;0.60;;;21.80;32.10;;;;;;5063723;28;20451;-58
2022/01/28 02:17:09;;;;;;;1.58;0.60;;;21.80;32.10;;;;;;5073586;28;20032;-49
2022/01/28 02:19:36;;;;;;;2.17;0.68;;;21.70;32.00;;;;;;5065214;28;20032;-47
2022/01/28 02:22:02;;;;;;;2.03;0.55;;;21.70;32.00;;;;;;5054439;28;20035;-51
2022/01/28 02:24:34;;;;;;;1.65;0.70;;;21.70;32.00;;;;;;5054096;28;20021;-53
2022/01/28 02:27:00;;;;;;;3.92;0.50;;;21.70;32.00;;;;;;5054218;28;20439;-52
2022/01/28 02:29:29;;;;;;;2.42;0.77;;;21.70;32.00;;;;;;5054296;28;20147;-50
2022/01/28 02:31:57;;;;;;;1.58;0.68;;;21.70;32.10;;;;;;5054909;28;20033;-52
2022/01/28 02:34:22;;;;;;;3.10;0.73;;;21.70;32.00;;;;;;5054440;28;20110;-51
2022/01/28 02:36:48;;;;;;;2.35;0.90;;;21.70;32.70;;;;;;5059406;28;20108;-54
2022/01/28 02:39:14;;;;;;;2.28;0.60;;;21.70;32.00;;;;;;5053811;28;20055;-53
2022/01/28 02:41:44;;;;;;;3.17;0.60;;;21.70;32.10;;;;;;5059040;28;20115;-49
2022/01/28 02:44:35;;;;;;;1.17;0.50;;;21.70;32.00;;;;;;5068787;28;20336;-52
2022/01/28 02:47:03;;;;;;;2.40;0.80;;;21.70;32.00;;;;;;5054646;28;20394;-53
2022/01/28 02:49:35;;;;;;;1.48;0.60;;;21.60;32.00;;;;;;5060437;28;20028;-52
2022/01/28 02:52:02;;;;;;;1.98;0.65;;;21.70;32.10;;;;;;5064537;28;20444;-49
2022/01/28 02:54:28;;;;;;;1.38;0.60;;;21.60;32.00;;;;;;5053728;28;20429;-53
2022/01/28 02:57:05;;;;;;;1.58;0.63;;;21.70;32.10;;;;;;5054484;28;20029;-51
2022/01/28 02:59:30;;;;;;;2.50;0.70;;;21.70;32.00;;;;;;5059862;28;20064;-52
2022/01/28 03:01:56;;;;;;;2.10;0.68;;;21.60;32.00;;;;;;5062331;28;20064;-50
2022/01/28 03:06:53;;;;;;;2.58;0.52;;;21.60;32.00;;;;;;5054164;28;20093;-59
2022/01/28 03:09:21;;;;;;;1.95;0.68;;;21.60;32.00;;;;;;5072622;28;20020;-53
2022/01/28 03:11:59;;;;;;;1.45;0.60;;;21.60;32.00;;;;;;5067614;28;20052;-47
2022/01/28 03:19:26;;;;;;;1.38;0.70;;;21.60;32.00;;;;;;5061720;28;20113;-55
2022/01/28 03:21:57;;;;;;;1.70;0.60;;;21.60;32.10;;;;;;5057144;28;20032;-53
2022/01/28 03:24:25;;;;;;;1.40;0.57;;;21.60;32.10;;;;;;5061360;28;20020;-54
2022/01/28 03:26:55;;;;;;;1.63;0.52;;;21.60;32.10;;;;;;5056857;28;20428;-49
2022/01/28 03:29:21;;;;;;;1.88;0.60;;;21.60;32.10;;;;;;5057181;28;20170;-55
2022/01/28 03:31:47;;;;;;;1.67;0.60;;;21.50;32.10;;;;;;5057029;28;20151;-49
2022/01/28 03:34:13;;;;;;;2.60;0.88;;;21.60;32.10;;;;;;5071844;28;20035;-52
2022/01/28 03:36:39;;;;;;;1.17;0.60;;;21.50;32.00;;;;;;5069869;28;20040;-57
2022/01/28 03:39:07;;;;;;;1.67;0.70;;;21.50;32.10;;;;;;5056621;28;20343;-52
2022/01/28 03:41:33;;;;;;;2.17;0.63;;;21.50;32.10;;;;;;5058066;28;20048;-50
2022/01/28 03:44:00;;;;;;;1.60;0.52;;;21.50;32.10;;;;;;5057120;28;20033;-56
2022/01/28 03:46:27;;;;;;;2.45;0.70;;;21.50;32.10;;;;;;5057104;28;20021;-59
2022/01/28 03:48:53;;;;;;;3.10;0.90;;;21.50;32.10;;;;;;5056497;28;20428;-52
2022/01/28 03:51:20;;;;;;;3.22;0.70;;;21.50;32.10;;;;;;5039016;28;20371;-52
2022/01/28 03:53:45;;;;;;;1.98;0.50;;;21.50;32.10;;;;;;5057190;28;20079;-51
2022/01/28 03:56:11;;;;;;;1.35;0.55;;;21.50;32.10;;;;;;5056511;28;20037;-52
2022/01/28 03:58:37;;;;;;;2.08;0.63;;;21.50;32.10;;;;;;5057194;28;20408;-51
2022/01/28 04:01:08;;;;;;;1.73;0.60;;;21.50;32.10;;;;;;5057161;28;20436;-51
2022/01/28 04:11:31;;;;;;;1.15;0.30;;;21.50;32.10;;;;;;5062960;28;20120;-52
2022/01/28 04:14:07;;;;;;;2.65;0.50;;;21.50;32.10;;;;;;5070287;28;20479;-50
2022/01/28 04:19:17;;;;;;;1.98;0.70;;;21.40;32.20;;;;;;5056389;28;20344;-51
2022/01/28 04:21:43;;;;;;;1.77;0.70;;;21.40;32.20;;;;;;5056519;28;20087;-49
2022/01/28 04:24:09;;;;;;;2.28;0.88;;;21.40;32.10;;;;;;5056493;28;20072;-49
2022/01/28 04:26:35;;;;;;;2.60;0.70;;;21.40;32.10;;;;;;5056514;28;20123;-54
2022/01/28 04:29:00;;;;;;;1.20;0.45;;;21.40;32.10;;;;;;5071563;28;20432;-55
2022/01/28 04:31:26;;;;;;;1.98;0.38;;;21.40;32.10;;;;;;5064935;28;20082;-51
2022/01/28 04:33:54;;;;;;;2.40;0.70;;;21.40;32.10;;;;;;5056028;28;20083;-54
2022/01/28 04:36:21;;;;;;;2.63;0.70;;;21.40;32.10;;;;;;5056061;28;20036;-52
2022/01/28 04:38:56;;;;;;;2.40;0.55;;;21.40;32.10;;;;;;5055855;28;20025;-53
2022/01/28 04:43:54;;;;;;;0.93;0.50;;;21.40;32.10;;;;;;5055434;28;20025;-54
2022/01/28 04:49:01;;;;;;;1.50;0.57;;;21.40;32.20;;;;;;5055999;28;20033;-49
2022/01/28 04:51:47;;;;;;;1.05;0.45;;;21.40;32.10;;;;;;5058910;28;20379;-58
2022/01/28 04:57:18;;;;;;;1.02;0.52;;;21.40;32.20;;;;;;5019985;28;20048;-51
2022/01/28 05:02:32;;;;;;;1.30;0.47;;;21.30;32.10;;;;;;5055868;28;20040;-56
2022/01/28 05:08:08;;;;;;;1.88;0.70;;;21.30;32.10;;;;;;5059484;28;20036;-58
2022/01/28 05:16:26;;;;;;;1.25;0.38;;;21.30;32.10;;;;;;5044495;28;20032;-54
2022/01/28 05:26:54;;;;;;;0.70;0.30;;;21.30;32.20;;;;;;5066382;28;20078;-54
2022/01/28 05:29:20;;;;;;;1.67;0.60;;;21.30;32.20;;;;;;5055321;28;20344;-51
2022/01/28 05:31:47;;;;;;;1.13;0.47;;;21.30;32.20;;;;;;5055340;28;20095;-48
2022/01/28 05:34:13;;;;;;;1.70;0.57;;;21.20;32.10;;;;;;5062503;28;20104;-54
2022/01/28 05:36:39;;;;;;;1.45;0.52;;;21.20;32.10;;;;;;5064789;28;20025;-56
2022/01/28 05:39:05;;;;;;;2.33;0.73;;;21.20;32.10;;;;;;5054871;28;20024;-55
2022/01/28 05:41:31;;;;;;;1.55;0.68;;;21.20;32.10;;;;;;5055778;28;20041;-52
2022/01/28 05:43:57;;;;;;;2.30;0.68;;;21.20;32.10;;;;;;5058782;28;20497;-56
2022/01/28 05:46:27;;;;;;;1.48;0.60;;;21.20;32.10;;;;;;5054299;28;20025;-49
2022/01/28 05:48:53;;;;;;;1.33;0.50;;;21.20;32.10;;;;;;5044878;28;20044;-51
2022/01/28 05:51:18;;;;;;;2.17;0.52;;;21.20;32.10;;;;;;5057929;28;20025;-57
2022/01/28 05:53:44;;;;;;;3.10;1.02;;;21.20;32.10;;;;;;5054988;28;20032;-52
2022/01/28 05:56:10;;;;;;;1.85;0.70;;;21.20;32.10;;;;;;5057377;28;20049;-57
2022/01/28 05:58:36;;;;;;;1.27;0.50;;;21.20;32.10;;;;;;5067502;28;20301;-54
2022/01/28 06:01:01;;;;;;;2.13;0.60;;;21.30;32.20;;;;;;5057089;28;20036;-52
2022/01/28 06:03:27;;;;;;;1.95;0.68;;;21.20;32.10;;;;;;5054664;28;20032;-55
2022/01/28 06:05:53;;;;;;;1.80;0.47;;;21.20;32.10;;;;;;5057069;28;20036;-51
2022/01/28 06:08:19;;;;;;;1.95;0.75;;;21.20;32.20;;;;;;5068681;28;20175;-54
2022/01/28 06:10:44;;;;;;;1.75;0.50;;;21.20;32.20;;;;;;5056109;28;20328;-51
2022/01/28 06:13:11;;;;;;;1.52;0.60;;;21.20;32.20;;;;;;5065910;28;20028;-54
2022/01/28 06:15:42;;;;;;;1.42;0.60;;;21.20;32.20;;;;;;5055599;28;20028;-48
2022/01/28 06:18:09;;;;;;;1.42;0.65;;;21.20;32.80;;;;;;5055035;28;20446;-53
2022/01/28 06:20:35;;;;;;;1.67;0.52;;;21.20;32.20;;;;;;5055364;28;20095;-50
2022/01/28 06:23:01;;;;;;;2.40;0.70;;;21.20;32.30;;;;;;5064398;28;20021;-52
2022/01/28 06:25:26;;;;;;;1.75;0.70;;;21.20;32.20;;;;;;5054091;28;20025;-52
2022/01/28 06:27:52;;;;;;;1.95;0.55;;;21.20;32.20;;;;;;5034115;28;20029;-55
2022/01/28 06:30:20;;;;;;;2.28;0.60;;;21.10;32.20;;;;;;5046832;28;20038;-55
2022/01/28 06:32:47;;;;;;;1.50;0.57;;;21.10;32.20;;;;;;5072540;28;20037;-55
2022/01/28 06:35:13;;;;;;;1.73;0.60;;;21.10;32.20;;;;;;5059961;28;20020;-54
2022/01/28 06:37:43;;;;;;;0.90;0.50;;;21.20;32.20;;;;;;5063904;28;20044;-55
2022/01/28 06:40:11;;;;;;;1.63;0.50;;;21.20;32.30;;;;;;5057940;28;20415;-52
2022/01/28 06:42:37;;;;;;;1.15;0.60;;;21.10;32.20;;;;;;5065028;28;20107;-51
2022/01/28 06:45:06;;;;;;;1.52;0.50;;;21.20;32.30;;;;;;5061889;28;20033;-52
2022/01/28 06:47:32;;;;;;;1.85;0.75;;;21.20;32.20;;;;;;5057892;28;20440;-50
2022/01/28 06:49:58;;;;;;;2.45;0.50;;;21.10;32.20;;;;;;5073131;28;20032;-47
2022/01/28 06:52:24;;;;;;;2.25;0.65;;;21.20;32.20;;;;;;5070175;28;20107;-56
2022/01/28 06:54:50;;;;;;;1.98;0.90;;;21.10;32.20;;;;;;5058101;28;20171;-54
2022/01/28 06:57:16;;;;;;;2.20;0.80;;;21.10;32.20;;;;;;5057691;28;20048;-50
2022/01/28 06:59:42;;;;;;;1.85;0.73;;;21.10;32.20;;;;;;5069537;28;20154;-53
2022/01/28 07:02:08;;;;;;;1.38;0.70;;;21.10;32.30;;;;;;5072702;28;20025;-51
2022/01/28 07:04:34;;;;;;;1.52;0.75;;;21.10;32.20;;;;;;5057891;28;20025;-53
2022/01/28 07:06:59;;;;;;;1.52;0.70;;;21.10;32.20;;;;;;5057457;28;20025;-54
2022/01/28 07:09:25;;;;;;;2.42;0.90;;;21.10;32.20;;;;;;5062884;28;20024;-56
2022/01/28 07:11:51;;;;;;;2.00;0.70;;;21.10;32.30;;;;;;5074197;28;20040;-47
2022/01/28 07:14:17;;;;;;;2.25;0.70;;;21.10;32.20;;;;;;5058085;28;20048;-56
2022/01/28 07:16:43;;;;;;;3.22;0.70;;;21.10;32.30;;;;;;5057720;28;20032;-50
2022/01/28 07:19:09;;;;;;;0.95;0.40;;;21.10;32.40;;;;;;5046942;28;20463;-51
2022/01/28 07:21:35;;;;;;;1.35;0.60;;;21.10;32.40;;;;;;5063444;28;20423;-56
2022/01/28 07:24:01;;;;;;;2.83;0.50;;;21.10;32.40;;;;;;5058381;28;20035;-52
2022/01/28 07:26:27;;;;;;;2.25;0.70;;;21.10;32.30;;;;;;5056904;28;20031;-53
2022/01/28 07:28:53;;;;;;;1.58;0.60;;;21.10;32.40;;;;;;5060486;28;20445;-57
2022/01/28 07:31:19;;;;;;;3.38;0.60;;;21.10;32.30;;;;;;5055004;28;20120;-54
2022/01/28 07:33:46;;;;;;;1.50;0.50;;;21.10;32.40;;;;;;5055466;28;20060;-55
2022/01/28 07:36:12;;;;;;;3.03;0.85;;;21.10;32.40;;;;;;5055785;28;20024;-55
2022/01/28 07:38:38;;;;;;;1.83;0.50;;;21.10;32.40;;;;;;5056603;28;20103;-55
2022/01/28 07:41:05;;;;;;;2.92;0.90;;;21.00;32.40;;;;;;5056737;28;20048;-54
2022/01/28 07:43:33;;;;;;;2.22;0.52;;;21.00;32.40;;;;;;5057686;28;20025;-51
2022/01/28 07:45:59;;;;;;;1.38;0.50;;;21.10;32.50;;;;;;5058050;28;20035;-53
2022/01/28 07:48:25;;;;;;;2.25;0.90;;;21.00;32.50;;;;;;5052408;28;20033;-57
2022/01/28 07:50:52;;;;;;;1.85;0.80;;;21.00;32.50;;;;;;5044423;28;20043;-53
2022/01/28 07:53:23;;;;;;;1.98;0.73;;;21.00;32.80;;;;;;5021554;28;20033;-57
2022/01/28 07:55:51;;;;;;;1.45;0.68;;;21.10;33.00;;;;;;5043044;28;20348;-54
2022/01/28 07:58:19;;;;;;;1.27;0.50;;;21.10;33.80;;;;;;5039712;28;20025;-51
2022/01/28 08:00:46;;;;;;;2.17;0.63;;;21.20;33.30;;;;;;5046944;28;20452;-56
2022/01/28 08:03:17;;;;;;;1.77;0.85;;;21.20;33.20;;;;;;5036914;28;20031;-56
2022/01/28 08:05:47;;;;;;;1.73;0.73;;;21.40;33.30;;;;;;5047892;28;20060;-54
2022/01/28 08:08:19;;;;;;;3.90;0.88;;;21.40;33.20;;;;;;5046057;28;20047;-54
2022/01/28 08:10:46;;;;;;;1.92;0.60;;;21.50;33.10;;;;;;5053934;28;20020;-56
2022/01/28 08:13:16;;;;;;;1.60;0.63;;;21.60;33.00;;;;;;5055322;28;20021;-52
2022/01/28 08:15:43;;;;;;;4.03;0.85;;;21.70;32.90;;;;;;5044670;28;20101;-59
2022/01/28 08:18:11;;;;;;;4.40;0.63;;;21.80;32.90;;;;;;5053789;28;20048;-51
2022/01/28 08:20:40;;;;;;;2.28;0.70;;;21.90;32.80;;;;;;5045048;28;20360;-57
2022/01/28 08:23:07;;;;;;;1.77;0.60;;;22.00;32.80;;;;;;5049938;28;20028;-57
2022/01/28 08:25:40;;;;;;;2.03;0.88;;;22.00;32.70;;;;;;5048636;28;20029;-54
2022/01/28 08:28:10;;;;;;;2.15;0.80;;;22.10;32.80;;;;;;5047356;28;20032;-55
2022/01/28 08:30:39;;;;;;;2.10;0.70;;;22.20;32.70;;;;;;5055802;28;20025;-57
2022/01/28 08:33:09;;;;;;;1.30;0.70;;;22.30;32.70;;;;;;5038407;28;20024;-56
2022/01/28 08:35:40;;;;;;;2.17;0.80;;;22.40;32.60;;;;;;5055441;28;20017;-53
2022/01/28 08:38:24;;;;;;;2.80;0.80;;;22.40;32.60;;;;;;5054675;28;20444;-55
2022/01/28 08:40:53;;;;;;;2.72;1.08;;;22.50;32.50;;;;;;5038967;28;20033;-55
2022/01/28 08:43:21;;;;;;;3.30;0.95;;;22.60;32.50;;;;;;5037699;28;20102;-52
2022/01/28 08:45:48;;;;;;;1.30;0.57;;;22.60;32.40;;;;;;5038416;28;20025;-55
2022/01/28 08:48:15;;;;;;;2.33;0.70;;;22.70;32.30;;;;;;5040672;28;20309;-51
2022/01/28 08:50:42;;;;;;;3.45;0.73;;;22.80;32.20;;;;;;5044703;28;20033;-57
2022/01/28 08:53:11;;;;;;;2.90;0.93;;;22.90;32.20;;;;;;5038332;28;20031;-54
2022/01/28 08:55:41;;;;;;;2.83;0.80;;;22.90;32.00;;;;;;5049615;28;20009;-57
2022/01/28 08:58:09;;;;;;;3.00;0.98;;;23.00;32.00;;;;;;5039484;28;20385;-49
2022/01/28 09:00:37;;;;;;;2.85;0.73;;;23.10;32.00;;;;;;5037741;28;20125;-58
2022/01/28 09:03:04;;;;;;;1.80;0.70;;;23.10;31.90;;;;;;5037626;28;20456;-53
2022/01/28 09:05:33;;;;;;;1.67;0.75;;;23.20;31.80;;;;;;5049258;28;20052;-50
2022/01/28 09:08:06;;;;;;;2.63;0.80;;;23.20;31.70;;;;;;5041389;28;20075;-50
2022/01/28 09:10:43;;;;;;;3.75;1.33;;;23.30;31.60;;;;;;5047524;28;20464;-55
2022/01/28 09:13:28;;;;;;;1.63;0.75;;;23.40;31.50;;;;;;5036270;28;20051;-56
2022/01/28 09:15:58;;;;;;;4.10;0.90;;;23.40;31.40;;;;;;5036916;28;20017;-52
2022/01/28 09:18:27;;;;;;;2.97;1.00;;;23.50;31.30;;;;;;5034693;28;20021;-53
2022/01/28 09:21:00;;;;;;;3.97;0.90;;;23.60;31.20;;;;;;5037314;28;20045;-55
2022/01/28 09:23:31;;;;;;;3.47;0.97;;;23.60;31.10;;;;;;5034274;28;20017;-53
2022/01/28 09:26:04;;;;;;;4.40;0.88;;;23.70;31.10;;;;;;5049578;28;20536;-56
2022/01/28 09:28:31;;;;;;;2.83;0.75;;;23.70;31.00;;;;;;5055551;28;20024;-55
2022/01/28 09:30:58;;;;;;;3.92;1.25;;;23.70;31.00;;;;;;5047697;28;20035;-52
2022/01/28 09:33:25;;;;;;;3.80;1.08;;;23.80;31.00;;;;;;5054907;28;20071;-58
2022/01/28 09:35:54;;;;;;;1.63;0.80;;;23.80;30.90;;;;;;5054210;28;20021;-56
2022/01/28 09:38:20;;;;;;;3.13;0.90;;;23.90;30.90;;;;;;5055063;28;20084;-55
2022/01/28 09:40:49;;;;;;;4.45;1.25;;;23.90;30.80;;;;;;5054585;28;20098;-48
2022/01/28 09:43:15;;;;;;;3.67;0.80;;;24.00;30.80;;;;;;5055333;28;20471;-49
2022/01/28 09:45:46;;;;;;;2.83;0.90;;;24.00;30.70;;;;;;5053482;28;20040;-54
2022/01/28 09:48:13;;;;;;;2.03;0.70;;;24.00;30.70;;;;;;5043739;28;20051;-55
2022/01/28 09:50:42;;;;;;;3.05;0.90;;;24.00;30.60;;;;;;5046183;28;20017;-48
2022/01/28 09:53:10;;;;;;;1.98;0.70;;;24.00;30.60;;;;;;5054872;28;20424;-55
2022/01/28 09:55:47;;;;;;;2.88;0.80;;;24.00;30.50;;;;;;5054166;28;20028;-47
2022/01/28 09:58:17;;;;;;;2.05;0.65;;;24.00;30.50;;;;;;5054672;28;20028;-52
2022/01/28 10:00:49;;;;;;;1.50;0.63;;;24.00;30.50;;;;;;5053203;28;20045;-52
2022/01/28 10:03:28;;;;;;;2.08;0.70;;;24.00;30.50;;;;;;5054144;28;20519;-50
2022/01/28 10:05:59;;;;;;;2.10;0.60;;;24.00;30.50;;;;;;5053482;28;20047;-50
2022/01/28 10:08:36;;;;;;;1.80;0.75;;;24.10;30.50;;;;;;5054596;28;20064;-51
2022/01/28 10:11:15;;;;;;;1.88;0.80;;;24.10;30.50;;;;;;5054530;28;20059;-52
2022/01/28 10:13:53;;;;;;;3.22;0.73;;;24.10;30.50;;;;;;5058325;28;20021;-51
2022/01/28 10:16:34;;;;;;;2.63;0.88;;;24.00;30.40;;;;;;5057994;28;20029;-54
2022/01/28 10:19:04;;;;;;;1.67;0.70;;;24.00;30.40;;;;;;5041179;28;20101;-52
2022/01/28 10:21:41;;;;;;;1.70;0.60;;;24.00;30.50;;;;;;5055991;28;20411;-58
2022/01/28 10:24:08;;;;;;;3.00;0.75;;;24.00;30.50;;;;;;5053890;28;20098;-51
2022/01/28 10:26:36;;;;;;;4.25;0.82;;;23.90;30.50;;;;;;5055391;28;20094;-55
2022/01/28 10:29:04;;;;;;;2.92;0.90;;;23.90;30.50;;;;;;5058618;28;20025;-55
2022/01/28 10:31:38;;;;;;;2.75;1.00;;;23.90;30.50;;;;;;5053060;28;20459;-49
2022/01/28 10:34:14;;;;;;;2.22;0.70;;;23.90;30.40;;;;;;5058145;28;20028;-55
2022/01/28 10:36:40;;;;;;;2.10;1.08;;;23.90;30.30;;;;;;5056394;28;20067;-57
2022/01/28 10:39:11;;;;;;;3.13;0.85;;;23.90;30.30;;;;;;5037917;28;20368;-54
2022/01/28 10:41:37;;;;;;;2.17;0.60;;;23.90;30.30;;;;;;5056946;28;20321;-51
2022/01/28 10:44:03;;;;;;;2.63;1.00;;;23.80;30.20;;;;;;5056042;28;20174;-53
2022/01/28 10:46:33;;;;;;;2.17;0.85;;;23.80;30.20;;;;;;5056532;28;20455;-55
2022/01/28 10:49:08;;;;;;;2.45;0.75;;;23.80;30.30;;;;;;5055999;28;20052;-54
2022/01/28 10:51:42;;;;;;;1.52;0.70;;;23.80;30.20;;;;;;5044960;28;20040;-53
2022/01/28 10:54:10;;;;;;;2.20;0.80;;;23.80;30.20;;;;;;5055519;28;20036;-57
2022/01/28 10:57:08;;;;;;;2.22;0.80;;;23.70;30.20;;;;;;5054327;28;20017;-55
2022/01/28 10:59:40;;;;;;;1.80;0.77;;;23.80;30.30;;;;;;5037076;28;20360;-54
2022/01/28 11:02:07;;;;;;;2.35;0.75;;;23.70;30.30;;;;;;5057032;28;20041;-56
2022/01/28 11:04:33;;;;;;;1.63;0.60;;;23.70;30.30;;;;;;5055128;28;20029;-57
2022/01/28 11:07:01;;;;;;;2.30;0.90;;;23.70;30.30;;;;;;5055999;28;20029;-55
2022/01/28 11:09:29;;;;;;;1.83;0.60;;;23.70;30.30;;;;;;5054810;28;20033;-56
2022/01/28 11:11:56;;;;;;;2.53;0.93;;;23.70;30.30;;;;;;5046406;28;20029;-53
2022/01/28 11:14:23;;;;;;;2.40;0.70;;;23.70;30.30;;;;;;5047475;28;20017;-56
2022/01/28 11:16:49;;;;;;;3.15;0.95;;;23.60;30.30;;;;;;5053304;28;20017;-52
2022/01/28 11:19:19;;;;;;;1.60;0.70;;;23.60;30.40;;;;;;5050522;28;20343;-51
2022/01/28 11:22:06;;;;;;;3.33;0.85;;;23.70;30.50;;;;;;5035338;28;20040;-60
2022/01/28 11:25:15;;;;;;;3.17;0.93;;;23.60;30.50;;;;;;5037273;28;20040;-53
2022/01/28 11:27:46;;;;;;;3.03;1.13;;;23.60;30.40;;;;;;5043301;28;20143;-54
2022/01/28 11:30:28;;;;;;;2.10;0.52;;;23.60;30.50;;;;;;5049233;28;20037;-51
2022/01/28 11:33:11;;;;;;;1.35;0.65;;;23.60;30.50;;;;;;5051393;28;20057;-52
2022/01/28 11:36:00;;;;;;;1.55;0.70;;;23.60;30.50;;;;;;5052568;28;20063;-52
2022/01/28 11:38:28;;;;;;;1.40;0.60;;;23.60;30.50;;;;;;5053581;28;20087;-51
2022/01/28 11:40:55;;;;;;;1.63;0.55;;;23.60;30.60;;;;;;5039893;28;20041;-57
2022/01/28 11:43:23;;;;;;;1.92;0.70;;;23.60;30.70;;;;;;5045370;28;20067;-51
2022/01/28 11:46:11;;;;;;;2.50;1.05;;;23.50;30.70;;;;;;5051355;28;20412;-53
2022/01/28 11:48:52;;;;;;;3.03;0.93;;;23.60;30.70;;;;;;5054270;28;20039;-57
2022/01/28 11:51:38;;;;;;;1.83;0.65;;;23.60;30.70;;;;;;5049353;28;20020;-57
2022/01/28 11:54:09;;;;;;;1.52;0.75;;;23.60;30.70;;;;;;5052317;28;20048;-53
2022/01/28 11:56:57;;;;;;;1.98;0.68;;;23.60;30.80;;;;;;5049334;28;20032;-54
2022/01/28 11:59:27;;;;;;;2.47;0.80;;;23.60;30.70;;;;;;5050422;28;20040;-54
2022/01/28 12:01:53;;;;;;;2.00;0.70;;;23.60;30.70;;;;;;5056127;28;20493;-52
2022/01/28 12:04:26;;;;;;;2.55;0.70;;;23.60;30.80;;;;;;5052507;28;20108;-55
2022/01/28 12:07:03;;;;;;;2.10;0.70;;;23.60;30.70;;;;;;5052614;28;20048;-53
2022/01/28 12:09:31;;;;;;;4.32;0.65;;;23.60;30.70;;;;;;5048605;28;20164;-56
2022/01/28 12:11:59;;;;;;;3.60;0.85;;;23.60;30.70;;;;;;5045501;28;20064;-52
2022/01/28 12:14:55;;;;;;;2.97;0.75;;;23.60;30.70;;;;;;5044172;28;20484;-51
2022/01/28 12:17:33;;;;;;;1.80;0.68;;;23.60;30.60;;;;;;5038066;28;20479;-51
2022/01/28 12:20:47;;;;;;;1.90;0.55;;;23.60;30.70;;;;;;5044168;28;20106;-48
2022/01/28 12:23:13;;;;;;;4.07;0.95;;;23.50;30.60;;;;;;5001311;28;20045;-54
2022/01/28 12:25:42;;;;;;;1.77;0.77;;;23.50;30.70;;;;;;5046656;28;20030;-56
2022/01/28 12:28:22;;;;;;;1.58;0.70;;;23.50;30.60;;;;;;5050903;28;20055;-54
2022/01/28 12:30:58;;;;;;;1.27;0.60;;;23.50;30.60;;;;;;5050858;28;20021;-54
2022/01/28 12:33:26;;;;;;;2.15;0.63;;;23.50;30.80;;;;;;5046459;28;20118;-53
2022/01/28 12:35:53;;;;;;;1.70;0.50;;;23.50;31.00;;;;;;5027359;28;20344;-57
2022/01/28 12:38:25;;;;;;;3.30;0.70;;;23.50;31.20;;;;;;5045547;28;20454;-52
2022/01/28 12:40:54;;;;;;;2.45;0.80;;;23.50;31.30;;;;;;5044402;28;20037;-54
2022/01/28 12:43:24;;;;;;;3.05;0.52;;;23.60;31.50;;;;;;5047721;28;20052;-58
2022/01/28 12:46:09;;;;;;;1.70;0.70;;;23.60;31.50;;;;;;5031789;28;20432;-62
2022/01/28 12:48:44;;;;;;;2.92;0.50;;;23.60;31.40;;;;;;5036242;28;20043;-58
2022/01/28 12:51:10;;;;;;;3.35;0.52;;;23.60;31.40;;;;;;5037486;28;20028;-58
2022/01/28 12:53:45;;;;;;;2.35;0.70;;;23.60;31.40;;;;;;5049778;28;20050;-59
2022/01/28 12:56:32;;;;;;;2.15;0.50;;;23.60;31.30;;;;;;5055314;28;20400;-58
2022/01/28 12:58:59;;;;;;;0.77;0.40;;;23.60;31.30;;;;;;5032113;28;20025;-53
2022/01/28 13:01:25;;;;;;;1.80;0.70;;;23.60;31.30;;;;;;5035344;28;20048;-56
2022/01/28 13:04:05;;;;;;;3.78;0.95;;;23.60;31.30;;;;;;5033623;28;20022;-52
2022/01/28 13:08:59;;;;;;;2.95;0.73;;;23.60;31.30;;;;;;5043561;28;20361;-54
2022/01/28 13:11:27;;;;;;;2.72;0.85;;;23.60;31.40;;;;;;5035560;28;20052;-57
2022/01/28 13:13:55;;;;;;;3.20;0.85;;;23.60;31.40;;;;;;5031523;28;20064;-60
2022/01/28 13:16:42;;;;;;;1.17;0.43;;;23.60;31.40;;;;;;5046165;28;20530;-53
2022/01/28 13:19:11;;;;;;;2.85;0.90;;;23.60;31.40;;;;;;5048835;28;20396;-57
2022/01/28 13:21:37;;;;;;;2.05;0.65;;;23.60;31.50;;;;;;5031536;28;20459;-53
2022/01/28 13:24:07;;;;;;;1.45;0.65;;;23.60;31.60;;;;;;5040727;28;20037;-59
2022/01/28 13:26:34;;;;;;;2.80;0.73;;;23.50;31.60;;;;;;5043063;28;20043;-58
2022/01/28 13:29:10;;;;;;;2.85;0.73;;;23.50;31.80;;;;;;5048911;28;20047;-58
2022/01/28 13:31:37;;;;;;;1.73;0.63;;;23.50;31.90;;;;;;5045267;28;20037;-58
2022/01/28 13:34:05;;;;;;;2.83;0.75;;;23.50;32.10;;;;;;5031750;28;20424;-46
2022/01/28 13:36:49;;;;;;;1.88;0.70;;;23.50;32.20;;;;;;5031251;28;20116;-52
2022/01/28 13:39:28;;;;;;;3.45;0.82;;;23.50;32.20;;;;;;5031253;28;20467;-49
2022/01/28 13:42:15;;;;;;;2.38;0.73;;;23.40;32.20;;;;;;5031552;28;20029;-54
2022/01/28 13:44:45;;;;;;;2.30;0.90;;;23.50;32.20;;;;;;5030988;28;20047;-50
2022/01/28 13:47:12;;;;;;;1.33;0.57;;;23.40;32.20;;;;;;5047905;28;20340;-54
2022/01/28 13:49:39;;;;;;;3.28;0.77;;;23.40;32.10;;;;;;5044287;28;20117;-53
2022/01/28 13:52:20;;;;;;;2.60;0.98;;;23.40;32.20;;;;;;5031318;28;20037;-51
2022/01/28 13:54:46;;;;;;;1.98;0.50;;;23.40;32.10;;;;;;5048061;28;20051;-51
2022/01/28 13:57:12;;;;;;;1.75;0.63;;;23.40;32.10;;;;;;5054086;28;20032;-55
2022/01/28 13:59:42;;;;;;;1.50;0.50;;;23.40;32.10;;;;;;5067229;28;20340;-56
2022/01/28 14:02:13;;;;;;;2.70;0.70;;;23.50;32.10;;;;;;5057345;28;20420;-52
2022/01/28 14:04:42;;;;;;;2.78;0.70;;;23.50;32.10;;;;;;5066484;28;20036;-55
2022/01/28 14:07:24;;;;;;;1.10;0.60;;;23.40;32.00;;;;;;5042664;28;20029;-54
2022/01/28 14:10:02;;;;;;;1.67;0.70;;;23.50;32.00;;;;;;5045230;28;20326;-57
2022/01/28 14:12:39;;;;;;;1.80;0.47;;;23.50;31.90;;;;;;5040933;28;20351;-51
2022/01/28 14:15:13;;;;;;;1.75;0.70;;;23.50;31.90;;;;;;5036874;28;20045;-51
2022/01/28 14:17:39;;;;;;;2.33;0.90;;;23.50;31.80;;;;;;5037252;28;20072;-54
2022/01/28 14:20:07;;;;;;;1.88;0.82;;;23.50;31.80;;;;;;5036752;28;20028;-53